sensor_id;sensor_type;location;lat;lon;timestamp;temperature;humidity
10046;DHT22;5063;50.878;4.742;2023-03-18T00:00:06;12.80;99.90
10046;DHT22;5063;50.878;4.742;2023-03-18T00:02:38;12.80;99.90
10046;DHT22;5063;50.878;4.742;2023-03-18T00:05:06;12.60;99.90
10046;DHT22;5063;50.878;4.742;2023-03-18T00:07:34;12.60;99.90
10046;DHT22;5063;50.878;4.742;2023-03-18T00:10:00;12.60;99.90
10046;DHT22;5063;50.878;4.742;2023-03-18T00:12:27;12.60;99.90
10046;DHT22;5063;50.878;4.742;2023-03-18T00:14:52;12.60;99.90
10046;DHT22;5063;50.878;4.742;2023-03-18T00:17:18;12.60;99.90
10046;DHT22;5063;50.878;4.742;2023-03-18T00:19:45;12.40;99.90
10046;DHT22;5063;50.878;4.742;2023-03-18T00:22:10;12.30;99.90
10046;DHT22;5063;50.878;4.742;2023-03-18T00:24:36;12.20;99.90
10046;DHT22;5063;50.878;4.742;2023-03-18T00:27:02;12.10;99.90
10046;DHT22;5063;50.878;4.742;2023-03-18T00:29:28;12.10;99.90
10046;DHT22;5063;50.878;4.742;2023-03-18T00:31:58;12.00;99.90
10046;DHT22;5063;50.878;4.742;2023-03-18T00:34:24;12.00;99.90
10046;DHT22;5063;50.878;4.742;2023-03-18T00:36:50;12.00;99.90
10046;DHT22;5063;50.878;4.742;2023-03-18T00:39:22;12.00;99.90
10046;DHT22;5063;50.878;4.742;2023-03-18T00:41:55;11.90;99.90
10046;DHT22;5063;50.878;4.742;2023-03-18T00:44:21;11.90;99.90
10046;DHT22;5063;50.878;4.742;2023-03-18T00:46:47;11.80;99.90
10046;DHT22;5063;50.878;4.742;2023-03-18T00:49:13;11.80;99.90
10046;DHT22;5063;50.878;4.742;2023-03-18T00:51:39;11.80;99.90
10046;DHT22;5063;50.878;4.742;2023-03-18T00:54:10;11.80;99.90
10046;DHT22;5063;50.878;4.742;2023-03-18T00:56:37;11.80;99.90
10046;DHT22;5063;50.878;4.742;2023-03-18T00:59:04;11.80;99.90
10046;DHT22;5063;50.878;4.742;2023-03-18T01:01:31;11.80;99.90
10046;DHT22;5063;50.878;4.742;2023-03-18T01:03:57;11.80;99.90
10046;DHT22;5063;50.878;4.742;2023-03-18T01:06:32;11.80;99.90
10046;DHT22;5063;50.878;4.742;2023-03-18T01:08:59;11.80;99.90
10046;DHT22;5063;50.878;4.742;2023-03-18T01:11:27;11.80;99.90
10046;DHT22;5063;50.878;4.742;2023-03-18T01:13:53;11.80;99.90
10046;DHT22;5063;50.878;4.742;2023-03-18T01:16:20;11.80;99.90
10046;DHT22;5063;50.878;4.742;2023-03-18T01:18:46;11.80;99.90
10046;DHT22;5063;50.878;4.742;2023-03-18T01:21:13;11.80;99.90
10046;DHT22;5063;50.878;4.742;2023-03-18T01:23:39;11.90;99.90
10046;DHT22;5063;50.878;4.742;2023-03-18T01:26:06;11.90;99.90
10046;DHT22;5063;50.878;4.742;2023-03-18T01:28:32;11.90;99.90
10046;DHT22;5063;50.878;4.742;2023-03-18T01:30:58;11.80;99.90
10046;DHT22;5063;50.878;4.742;2023-03-18T01:33:24;11.90;99.90
10046;DHT22;5063;50.878;4.742;2023-03-18T01:35:55;11.90;99.90
10046;DHT22;5063;50.878;4.742;2023-03-18T01:38:22;11.90;99.90
10046;DHT22;5063;50.878;4.742;2023-03-18T01:40:49;11.80;99.90
10046;DHT22;5063;50.878;4.742;2023-03-18T01:43:33;11.90;99.90
10046;DHT22;5063;50.878;4.742;2023-03-18T01:48:47;11.90;99.90
10046;DHT22;5063;50.878;4.742;2023-03-18T01:51:14;11.80;99.90
10046;DHT22;5063;50.878;4.742;2023-03-18T01:53:43;11.80;99.90
10046;DHT22;5063;50.878;4.742;2023-03-18T01:56:10;11.80;99.90
10046;DHT22;5063;50.878;4.742;2023-03-18T01:58:42;11.80;99.90
10046;DHT22;5063;50.878;4.742;2023-03-18T02:01:16;11.80;99.90
10046;DHT22;5063;50.878;4.742;2023-03-18T02:03:43;11.80;99.90
10046;DHT22;5063;50.878;4.742;2023-03-18T02:06:10;11.80;99.90
10046;DHT22;5063;50.878;4.742;2023-03-18T02:08:38;11.80;99.90
10046;DHT22;5063;50.878;4.742;2023-03-18T02:11:06;11.80;99.90
10046;DHT22;5063;50.878;4.742;2023-03-18T02:13:35;11.80;99.90
10046;DHT22;5063;50.878;4.742;2023-03-18T02:16:08;11.80;99.90
10046;DHT22;5063;50.878;4.742;2023-03-18T02:18:49;11.80;99.90
10046;DHT22;5063;50.878;4.742;2023-03-18T02:24:10;11.80;99.90
10046;DHT22;5063;50.878;4.742;2023-03-18T02:26:55;11.80;99.90
10046;DHT22;5063;50.878;4.742;2023-03-18T02:29:22;11.80;99.90
10046;DHT22;5063;50.878;4.742;2023-03-18T02:31:51;11.80;99.90
10046;DHT22;5063;50.878;4.742;2023-03-18T02:34:18;11.80;99.90
10046;DHT22;5063;50.878;4.742;2023-03-18T02:36:44;11.80;99.90
10046;DHT22;5063;50.878;4.742;2023-03-18T02:39:14;11.80;99.90
10046;DHT22;5063;50.878;4.742;2023-03-18T02:41:41;11.80;99.90
10046;DHT22;5063;50.878;4.742;2023-03-18T02:44:09;11.80;99.90
10046;DHT22;5063;50.878;4.742;2023-03-18T02:47:01;11.80;99.90
10046;DHT22;5063;50.878;4.742;2023-03-18T02:49:29;11.80;99.90
10046;DHT22;5063;50.878;4.742;2023-03-18T02:51:55;11.80;99.90
10046;DHT22;5063;50.878;4.742;2023-03-18T02:54:24;11.70;99.90
10046;DHT22;5063;50.878;4.742;2023-03-18T02:56:50;11.70;99.90
10046;DHT22;5063;50.878;4.742;2023-03-18T02:59:17;11.70;99.90
10046;DHT22;5063;50.878;4.742;2023-03-18T03:01:44;11.70;99.90
10046;DHT22;5063;50.878;4.742;2023-03-18T03:04:11;11.80;99.90
10046;DHT22;5063;50.878;4.742;2023-03-18T03:06:38;11.80;99.90
10046;DHT22;5063;50.878;4.742;2023-03-18T03:09:06;11.80;99.90
10046;DHT22;5063;50.878;4.742;2023-03-18T03:11:33;11.80;99.90
10046;DHT22;5063;50.878;4.742;2023-03-18T03:14:00;11.80;99.90
10046;DHT22;5063;50.878;4.742;2023-03-18T03:16:26;11.80;99.90
10046;DHT22;5063;50.878;4.742;2023-03-18T03:18:52;11.80;99.90
10046;DHT22;5063;50.878;4.742;2023-03-18T03:21:19;11.80;99.90
10046;DHT22;5063;50.878;4.742;2023-03-18T03:23:45;11.70;99.90
10046;DHT22;5063;50.878;4.742;2023-03-18T03:26:12;11.60;99.90
10046;DHT22;5063;50.878;4.742;2023-03-18T03:28:38;11.50;99.90
10046;DHT22;5063;50.878;4.742;2023-03-18T03:31:04;11.50;99.90
10046;DHT22;5063;50.878;4.742;2023-03-18T03:33:29;11.40;99.90
10046;DHT22;5063;50.878;4.742;2023-03-18T03:35:55;11.40;99.90
10046;DHT22;5063;50.878;4.742;2023-03-18T03:38:22;11.40;99.90
10046;DHT22;5063;50.878;4.742;2023-03-18T03:40:48;11.40;99.90
10046;DHT22;5063;50.878;4.742;2023-03-18T03:43:14;11.40;99.90
10046;DHT22;5063;50.878;4.742;2023-03-18T03:45:42;11.40;99.90
10046;DHT22;5063;50.878;4.742;2023-03-18T03:48:09;11.40;99.90
10046;DHT22;5063;50.878;4.742;2023-03-18T03:50:36;11.40;99.90
10046;DHT22;5063;50.878;4.742;2023-03-18T03:53:03;11.50;99.90
10046;DHT22;5063;50.878;4.742;2023-03-18T03:55:30;11.60;99.90
10046;DHT22;5063;50.878;4.742;2023-03-18T03:57:56;11.50;99.90
10046;DHT22;5063;50.878;4.742;2023-03-18T04:00:22;11.50;99.90
10046;DHT22;5063;50.878;4.742;2023-03-18T04:02:50;11.40;99.90
10046;DHT22;5063;50.878;4.742;2023-03-18T04:05:18;11.40;99.90
10046;DHT22;5063;50.878;4.742;2023-03-18T04:07:45;11.30;99.90
10046;DHT22;5063;50.878;4.742;2023-03-18T04:10:13;11.10;99.90
10046;DHT22;5063;50.878;4.742;2023-03-18T04:12:41;10.90;99.90
10046;DHT22;5063;50.878;4.742;2023-03-18T04:15:07;10.70;99.90
10046;DHT22;5063;50.878;4.742;2023-03-18T04:17:34;10.60;99.90
10046;DHT22;5063;50.878;4.742;2023-03-18T04:20:00;10.40;99.90
10046;DHT22;5063;50.878;4.742;2023-03-18T04:22:26;10.40;99.90
10046;DHT22;5063;50.878;4.742;2023-03-18T04:24:52;10.30;99.90
10046;DHT22;5063;50.878;4.742;2023-03-18T04:27:18;10.20;99.90
10046;DHT22;5063;50.878;4.742;2023-03-18T04:29:44;10.10;99.90
10046;DHT22;5063;50.878;4.742;2023-03-18T04:32:11;10.00;99.90
10046;DHT22;5063;50.878;4.742;2023-03-18T04:34:37;10.00;99.90
10046;DHT22;5063;50.878;4.742;2023-03-18T04:37:03;9.90;99.90
10046;DHT22;5063;50.878;4.742;2023-03-18T04:39:29;9.90;99.90
10046;DHT22;5063;50.878;4.742;2023-03-18T04:41:55;9.90;99.90
10046;DHT22;5063;50.878;4.742;2023-03-18T04:44:22;10.00;99.90
10046;DHT22;5063;50.878;4.742;2023-03-18T04:46:49;9.90;99.90
10046;DHT22;5063;50.878;4.742;2023-03-18T04:49:15;9.90;99.90
10046;DHT22;5063;50.878;4.742;2023-03-18T04:51:41;9.90;99.90
10046;DHT22;5063;50.878;4.742;2023-03-18T04:54:07;9.80;99.90
10046;DHT22;5063;50.878;4.742;2023-03-18T04:56:33;9.70;99.90
10046;DHT22;5063;50.878;4.742;2023-03-18T04:58:58;9.70;99.90
10046;DHT22;5063;50.878;4.742;2023-03-18T05:01:24;9.60;99.90
10046;DHT22;5063;50.878;4.742;2023-03-18T05:03:50;9.60;99.90
10046;DHT22;5063;50.878;4.742;2023-03-18T05:06:29;9.60;99.90
10046;DHT22;5063;50.878;4.742;2023-03-18T05:08:56;9.60;99.90
10046;DHT22;5063;50.878;4.742;2023-03-18T05:11:23;9.70;99.90
10046;DHT22;5063;50.878;4.742;2023-03-18T05:13:49;9.70;99.90
10046;DHT22;5063;50.878;4.742;2023-03-18T05:16:16;9.80;99.90
10046;DHT22;5063;50.878;4.742;2023-03-18T05:18:43;9.80;99.90
10046;DHT22;5063;50.878;4.742;2023-03-18T05:21:09;9.90;99.90
10046;DHT22;5063;50.878;4.742;2023-03-18T05:23:36;10.00;99.90
10046;DHT22;5063;50.878;4.742;2023-03-18T05:26:03;9.80;99.90
10046;DHT22;5063;50.878;4.742;2023-03-18T05:28:31;9.60;99.90
10046;DHT22;5063;50.878;4.742;2023-03-18T05:30:57;9.50;99.90
10046;DHT22;5063;50.878;4.742;2023-03-18T05:33:23;9.40;99.90
10046;DHT22;5063;50.878;4.742;2023-03-18T05:35:49;9.30;99.90
10046;DHT22;5063;50.878;4.742;2023-03-18T05:38:14;9.30;99.90
10046;DHT22;5063;50.878;4.742;2023-03-18T05:40:40;9.30;99.90
10046;DHT22;5063;50.878;4.742;2023-03-18T05:43:06;9.40;99.90
10046;DHT22;5063;50.878;4.742;2023-03-18T05:45:32;9.40;99.90
10046;DHT22;5063;50.878;4.742;2023-03-18T05:47:57;9.60;99.90
10046;DHT22;5063;50.878;4.742;2023-03-18T05:50:29;9.70;99.90
10046;DHT22;5063;50.878;4.742;2023-03-18T05:52:55;9.90;99.90
10046;DHT22;5063;50.878;4.742;2023-03-18T05:55:20;10.00;99.90
10046;DHT22;5063;50.878;4.742;2023-03-18T05:57:48;10.10;99.90
10046;DHT22;5063;50.878;4.742;2023-03-18T06:00:14;10.20;99.90
10046;DHT22;5063;50.878;4.742;2023-03-18T06:02:40;10.30;99.90
10046;DHT22;5063;50.878;4.742;2023-03-18T06:05:07;10.30;99.90
10046;DHT22;5063;50.878;4.742;2023-03-18T06:07:32;10.20;99.90
10046;DHT22;5063;50.878;4.742;2023-03-18T06:09:58;10.20;99.90
10046;DHT22;5063;50.878;4.742;2023-03-18T06:12:24;10.10;99.90
10046;DHT22;5063;50.878;4.742;2023-03-18T06:14:52;10.10;99.90
10046;DHT22;5063;50.878;4.742;2023-03-18T06:17:18;10.00;99.90
10046;DHT22;5063;50.878;4.742;2023-03-18T06:19:44;10.00;99.90
10046;DHT22;5063;50.878;4.742;2023-03-18T06:22:11;10.00;99.90
10046;DHT22;5063;50.878;4.742;2023-03-18T06:24:36;9.90;99.90
10046;DHT22;5063;50.878;4.742;2023-03-18T06:27:02;9.90;99.90
10046;DHT22;5063;50.878;4.742;2023-03-18T06:29:28;9.90;99.90
10046;DHT22;5063;50.878;4.742;2023-03-18T06:31:55;9.90;99.90
10046;DHT22;5063;50.878;4.742;2023-03-18T06:34:20;9.90;99.90
10046;DHT22;5063;50.878;4.742;2023-03-18T06:36:46;10.00;99.90
10046;DHT22;5063;50.878;4.742;2023-03-18T06:39:12;10.00;99.90
10046;DHT22;5063;50.878;4.742;2023-03-18T06:41:38;10.00;99.90
10046;DHT22;5063;50.878;4.742;2023-03-18T06:44:04;10.10;99.90
10046;DHT22;5063;50.878;4.742;2023-03-18T06:46:31;10.10;99.90
10046;DHT22;5063;50.878;4.742;2023-03-18T06:48:56;10.20;99.90
10046;DHT22;5063;50.878;4.742;2023-03-18T06:51:22;10.40;99.90
10046;DHT22;5063;50.878;4.742;2023-03-18T06:53:49;10.60;99.90
10046;DHT22;5063;50.878;4.742;2023-03-18T06:56:15;11.10;99.90
10046;DHT22;5063;50.878;4.742;2023-03-18T06:58:42;11.20;99.90
10046;DHT22;5063;50.878;4.742;2023-03-18T07:01:08;11.50;99.90
10046;DHT22;5063;50.878;4.742;2023-03-18T07:03:37;11.70;99.90
10046;DHT22;5063;50.878;4.742;2023-03-18T07:06:03;11.80;99.90
10046;DHT22;5063;50.878;4.742;2023-03-18T07:08:29;11.70;99.90
10046;DHT22;5063;50.878;4.742;2023-03-18T07:10:55;11.50;99.90
10046;DHT22;5063;50.878;4.742;2023-03-18T07:13:21;11.40;99.90
10046;DHT22;5063;50.878;4.742;2023-03-18T07:15:46;11.50;99.90
10046;DHT22;5063;50.878;4.742;2023-03-18T07:18:13;11.90;99.90
10046;DHT22;5063;50.878;4.742;2023-03-18T07:20:39;13.00;99.90
10046;DHT22;5063;50.878;4.742;2023-03-18T07:23:06;14.30;99.90
10046;DHT22;5063;50.878;4.742;2023-03-18T07:25:32;15.70;99.90
10046;DHT22;5063;50.878;4.742;2023-03-18T07:27:58;16.60;99.90
10046;DHT22;5063;50.878;4.742;2023-03-18T07:30:27;17.50;99.90
10046;DHT22;5063;50.878;4.742;2023-03-18T07:32:53;18.20;99.90
10046;DHT22;5063;50.878;4.742;2023-03-18T07:35:20;18.00;99.90
10046;DHT22;5063;50.878;4.742;2023-03-18T07:37:46;17.30;99.90
10046;DHT22;5063;50.878;4.742;2023-03-18T07:40:13;17.30;99.90
10046;DHT22;5063;50.878;4.742;2023-03-18T07:42:39;17.70;99.90
10046;DHT22;5063;50.878;4.742;2023-03-18T07:45:06;19.00;99.90
10046;DHT22;5063;50.878;4.742;2023-03-18T07:47:32;19.40;99.90
10046;DHT22;5063;50.878;4.742;2023-03-18T07:49:58;20.20;99.90
10046;DHT22;5063;50.878;4.742;2023-03-18T07:52:25;20.40;99.90
10046;DHT22;5063;50.878;4.742;2023-03-18T07:54:51;20.50;99.90
10046;DHT22;5063;50.878;4.742;2023-03-18T07:57:17;20.00;99.90
10046;DHT22;5063;50.878;4.742;2023-03-18T07:59:43;19.70;99.90
10046;DHT22;5063;50.878;4.742;2023-03-18T08:02:15;19.70;99.90
10046;DHT22;5063;50.878;4.742;2023-03-18T08:04:42;19.40;99.90
10046;DHT22;5063;50.878;4.742;2023-03-18T08:07:09;18.00;99.90
10046;DHT22;5063;50.878;4.742;2023-03-18T08:09:35;17.30;99.90
10046;DHT22;5063;50.878;4.742;2023-03-18T08:12:01;16.50;99.90
10046;DHT22;5063;50.878;4.742;2023-03-18T08:14:27;15.70;99.90
10046;DHT22;5063;50.878;4.742;2023-03-18T08:16:53;15.50;99.90
10046;DHT22;5063;50.878;4.742;2023-03-18T08:19:18;15.10;99.90
10046;DHT22;5063;50.878;4.742;2023-03-18T08:21:44;14.90;99.90
10046;DHT22;5063;50.878;4.742;2023-03-18T08:24:10;15.30;99.90
10046;DHT22;5063;50.878;4.742;2023-03-18T08:26:36;16.10;99.90
10046;DHT22;5063;50.878;4.742;2023-03-18T08:29:02;17.00;99.90
10046;DHT22;5063;50.878;4.742;2023-03-18T08:31:28;18.20;99.90
10046;DHT22;5063;50.878;4.742;2023-03-18T08:33:53;18.90;99.90
10046;DHT22;5063;50.878;4.742;2023-03-18T08:36:21;20.30;99.90
10046;DHT22;5063;50.878;4.742;2023-03-18T08:38:47;20.70;99.90
10046;DHT22;5063;50.878;4.742;2023-03-18T08:41:14;20.70;99.90
10046;DHT22;5063;50.878;4.742;2023-03-18T08:43:42;21.00;99.90
10046;DHT22;5063;50.878;4.742;2023-03-18T08:46:07;20.50;99.90
10046;DHT22;5063;50.878;4.742;2023-03-18T08:48:33;19.70;99.90
10046;DHT22;5063;50.878;4.742;2023-03-18T08:51:03;19.00;99.90
10046;DHT22;5063;50.878;4.742;2023-03-18T08:53:29;18.40;99.90
10046;DHT22;5063;50.878;4.742;2023-03-18T08:55:55;18.10;99.90
10046;DHT22;5063;50.878;4.742;2023-03-18T08:58:21;17.90;99.90
10046;DHT22;5063;50.878;4.742;2023-03-18T09:00:47;17.40;99.90
10046;DHT22;5063;50.878;4.742;2023-03-18T09:03:15;17.00;99.90
10046;DHT22;5063;50.878;4.742;2023-03-18T09:05:41;16.90;99.90
10046;DHT22;5063;50.878;4.742;2023-03-18T09:08:07;17.20;99.90
10046;DHT22;5063;50.878;4.742;2023-03-18T09:10:32;17.40;99.90
10046;DHT22;5063;50.878;4.742;2023-03-18T09:12:58;17.80;99.90
10046;DHT22;5063;50.878;4.742;2023-03-18T09:15:25;18.00;99.90
10046;DHT22;5063;50.878;4.742;2023-03-18T09:17:52;17.90;99.90
10046;DHT22;5063;50.878;4.742;2023-03-18T09:20:18;17.80;99.90
10046;DHT22;5063;50.878;4.742;2023-03-18T09:22:45;17.20;99.90
10046;DHT22;5063;50.878;4.742;2023-03-18T09:25:11;16.90;99.90
10046;DHT22;5063;50.878;4.742;2023-03-18T09:27:38;16.60;99.90
10046;DHT22;5063;50.878;4.742;2023-03-18T09:30:04;16.30;99.90
10046;DHT22;5063;50.878;4.742;2023-03-18T09:32:30;16.30;99.90
10046;DHT22;5063;50.878;4.742;2023-03-18T09:34:56;16.20;99.90
10046;DHT22;5063;50.878;4.742;2023-03-18T09:37:22;16.00;99.90
10046;DHT22;5063;50.878;4.742;2023-03-18T09:39:48;16.30;99.90
10046;DHT22;5063;50.878;4.742;2023-03-18T09:44:59;16.40;99.90
10046;DHT22;5063;50.878;4.742;2023-03-18T09:53:11;16.20;99.90
10046;DHT22;5063;50.878;4.742;2023-03-18T09:55:45;16.10;99.90
10046;DHT22;5063;50.878;4.742;2023-03-18T09:58:26;16.10;99.90
10046;DHT22;5063;50.878;4.742;2023-03-18T10:00:59;16.20;99.90
10046;DHT22;5063;50.878;4.742;2023-03-18T10:03:46;16.10;99.90
10046;DHT22;5063;50.878;4.742;2023-03-18T10:06:18;16.10;99.90
10046;DHT22;5063;50.878;4.742;2023-03-18T10:08:59;16.20;99.90
10046;DHT22;5063;50.878;4.742;2023-03-18T10:11:34;15.90;99.90
10046;DHT22;5063;50.878;4.742;2023-03-18T10:14:29;15.70;99.90
10046;DHT22;5063;50.878;4.742;2023-03-18T10:17:10;15.80;99.90
10046;DHT22;5063;50.878;4.742;2023-03-18T10:19:45;15.70;99.90
10046;DHT22;5063;50.878;4.742;2023-03-18T10:23:17;15.50;99.90
10046;DHT22;5063;50.878;4.742;2023-03-18T10:25:37;15.50;99.90
10046;DHT22;5063;50.878;4.742;2023-03-18T10:33:44;15.80;99.90
10046;DHT22;5063;50.878;4.742;2023-03-18T10:36:17;16.00;99.90
10046;DHT22;5063;50.878;4.742;2023-03-18T10:38:48;16.30;99.90
10046;DHT22;5063;50.878;4.742;2023-03-18T10:41:35;16.50;99.90
10046;DHT22;5063;50.878;4.742;2023-03-18T10:44:05;16.50;99.90
10046;DHT22;5063;50.878;4.742;2023-03-18T10:46:37;16.60;99.90
10046;DHT22;5063;50.878;4.742;2023-03-18T10:49:14;16.40;99.90
10046;DHT22;5063;50.878;4.742;2023-03-18T10:52:25;16.00;99.90
10046;DHT22;5063;50.878;4.742;2023-03-18T10:54:53;15.70;99.90
10046;DHT22;5063;50.878;4.742;2023-03-18T10:57:20;15.70;99.90
10046;DHT22;5063;50.878;4.742;2023-03-18T10:59:48;15.60;99.90
10046;DHT22;5063;50.878;4.742;2023-03-18T11:02:28;15.60;99.90
10046;DHT22;5063;50.878;4.742;2023-03-18T11:05:02;15.40;99.90
10046;DHT22;5063;50.878;4.742;2023-03-18T11:07:29;15.10;99.90
10046;DHT22;5063;50.878;4.742;2023-03-18T11:10:13;15.10;99.90
10046;DHT22;5063;50.878;4.742;2023-03-18T11:12:41;15.10;99.90
10046;DHT22;5063;50.878;4.742;2023-03-18T11:15:10;15.40;99.90
10046;DHT22;5063;50.878;4.742;2023-03-18T11:17:37;15.40;99.90
10046;DHT22;5063;50.878;4.742;2023-03-18T11:20:19;15.40;99.90
10046;DHT22;5063;50.878;4.742;2023-03-18T11:22:51;15.20;99.90
10046;DHT22;5063;50.878;4.742;2023-03-18T11:25:19;15.10;99.90
10046;DHT22;5063;50.878;4.742;2023-03-18T11:28:04;15.40;99.90
10046;DHT22;5063;50.878;4.742;2023-03-18T11:30:55;15.50;99.90
10046;DHT22;5063;50.878;4.742;2023-03-18T11:33:31;15.70;99.90
10046;DHT22;5063;50.878;4.742;2023-03-18T11:36:05;15.50;99.90
10046;DHT22;5063;50.878;4.742;2023-03-18T11:38:35;15.40;99.90
10046;DHT22;5063;50.878;4.742;2023-03-18T11:41:13;15.40;99.90
10046;DHT22;5063;50.878;4.742;2023-03-18T11:46:42;15.50;99.90
10046;DHT22;5063;50.878;4.742;2023-03-18T11:49:16;15.90;99.90
10046;DHT22;5063;50.878;4.742;2023-03-18T12:10:49;18.20;99.90
10046;DHT22;5063;50.878;4.742;2023-03-18T12:18:33;17.90;99.90
10046;DHT22;5063;50.878;4.742;2023-03-18T12:41:25;18.70;99.90
10046;DHT22;5063;50.878;4.742;2023-03-18T12:47:02;18.20;99.90
10046;DHT22;5063;50.878;4.742;2023-03-18T12:57:44;17.90;99.90
10046;DHT22;5063;50.878;4.742;2023-03-18T13:00:28;18.00;99.90
10046;DHT22;5063;50.878;4.742;2023-03-18T13:03:39;17.70;99.90
10046;DHT22;5063;50.878;4.742;2023-03-18T13:06:47;17.70;99.90
10046;DHT22;5063;50.878;4.742;2023-03-18T13:11:47;17.70;99.90
10046;DHT22;5063;50.878;4.742;2023-03-18T13:17:03;17.20;99.90
10046;DHT22;5063;50.878;4.742;2023-03-18T13:19:40;17.30;99.90
10046;DHT22;5063;50.878;4.742;2023-03-18T13:30:39;17.80;99.90
10046;DHT22;5063;50.878;4.742;2023-03-18T13:36:00;17.60;99.90
10046;DHT22;5063;50.878;4.742;2023-03-18T13:38:43;17.50;99.90
10046;DHT22;5063;50.878;4.742;2023-03-18T13:44:13;17.40;99.90
10046;DHT22;5063;50.878;4.742;2023-03-18T13:46:51;17.80;99.90
10046;DHT22;5063;50.878;4.742;2023-03-18T13:49:19;17.80;99.90
10046;DHT22;5063;50.878;4.742;2023-03-18T13:51:51;17.80;99.90
10046;DHT22;5063;50.878;4.742;2023-03-18T13:54:18;18.00;99.90
10046;DHT22;5063;50.878;4.742;2023-03-18T13:56:51;18.20;99.90
10046;DHT22;5063;50.878;4.742;2023-03-18T14:05:08;18.10;99.90
10046;DHT22;5063;50.878;4.742;2023-03-18T14:07:48;17.80;99.90
10046;DHT22;5063;50.878;4.742;2023-03-18T14:10:17;18.00;99.90
10046;DHT22;5063;50.878;4.742;2023-03-18T14:12:45;18.20;99.90
10046;DHT22;5063;50.878;4.742;2023-03-18T14:17:44;18.40;99.90
10046;DHT22;5063;50.878;4.742;2023-03-18T14:22:49;18.40;99.90
10046;DHT22;5063;50.878;4.742;2023-03-18T14:25:22;18.20;99.90
10046;DHT22;5063;50.878;4.742;2023-03-18T14:28:14;18.40;99.90
10046;DHT22;5063;50.878;4.742;2023-03-18T14:30:46;18.20;99.90
10046;DHT22;5063;50.878;4.742;2023-03-18T14:38:28;18.90;99.90
10046;DHT22;5063;50.878;4.742;2023-03-18T14:40:56;19.20;99.90
10046;DHT22;5063;50.878;4.742;2023-03-18T14:43:46;19.30;99.90
10046;DHT22;5063;50.878;4.742;2023-03-18T14:46:17;19.40;99.90
10046;DHT22;5063;50.878;4.742;2023-03-18T14:48:50;19.10;99.90
10046;DHT22;5063;50.878;4.742;2023-03-18T14:51:19;18.80;99.90
10046;DHT22;5063;50.878;4.742;2023-03-18T14:54:06;18.50;99.90
10046;DHT22;5063;50.878;4.742;2023-03-18T14:56:39;18.10;99.90
10046;DHT22;5063;50.878;4.742;2023-03-18T14:59:07;17.70;99.90
10046;DHT22;5063;50.878;4.742;2023-03-18T15:01:38;17.30;99.90
10046;DHT22;5063;50.878;4.742;2023-03-18T15:04:07;17.10;99.90
10046;DHT22;5063;50.878;4.742;2023-03-18T15:06:38;17.30;99.90
10046;DHT22;5063;50.878;4.742;2023-03-18T15:09:12;17.50;99.90
10046;DHT22;5063;50.878;4.742;2023-03-18T15:11:45;17.80;99.90
10046;DHT22;5063;50.878;4.742;2023-03-18T15:14:18;17.80;99.90
10046;DHT22;5063;50.878;4.742;2023-03-18T15:16:59;17.70;99.90
10046;DHT22;5063;50.878;4.742;2023-03-18T15:19:29;17.60;99.90
10046;DHT22;5063;50.878;4.742;2023-03-18T15:22:00;17.70;99.90
10046;DHT22;5063;50.878;4.742;2023-03-18T15:24:30;17.60;99.90
10046;DHT22;5063;50.878;4.742;2023-03-18T15:26:59;17.50;99.90
10046;DHT22;5063;50.878;4.742;2023-03-18T15:29:31;17.30;99.90
10046;DHT22;5063;50.878;4.742;2023-03-18T15:32:28;17.10;99.90
10046;DHT22;5063;50.878;4.742;2023-03-18T15:35:18;17.30;99.90
10046;DHT22;5063;50.878;4.742;2023-03-18T15:38:02;17.40;99.90
10046;DHT22;5063;50.878;4.742;2023-03-18T15:40:31;17.30;99.90
10046;DHT22;5063;50.878;4.742;2023-03-18T15:48:38;18.20;99.90
10046;DHT22;5063;50.878;4.742;2023-03-18T15:51:27;18.40;99.90
10046;DHT22;5063;50.878;4.742;2023-03-18T15:54:11;18.60;99.90
10046;DHT22;5063;50.878;4.742;2023-03-18T15:56:43;18.80;99.90
10046;DHT22;5063;50.878;4.742;2023-03-18T15:59:13;18.60;99.90
10046;DHT22;5063;50.878;4.742;2023-03-18T16:01:41;18.20;99.90
10046;DHT22;5063;50.878;4.742;2023-03-18T16:04:09;17.80;99.90
10046;DHT22;5063;50.878;4.742;2023-03-18T16:06:36;17.30;99.90
10046;DHT22;5063;50.878;4.742;2023-03-18T16:11:40;17.20;99.90
10046;DHT22;5063;50.878;4.742;2023-03-18T16:14:14;17.20;99.90
10046;DHT22;5063;50.878;4.742;2023-03-18T16:16:40;17.00;99.90
10046;DHT22;5063;50.878;4.742;2023-03-18T16:19:15;17.00;99.90
10046;DHT22;5063;50.878;4.742;2023-03-18T16:21:43;16.90;99.90
10046;DHT22;5063;50.878;4.742;2023-03-18T16:24:10;16.80;99.90
10046;DHT22;5063;50.878;4.742;2023-03-18T16:26:36;16.70;99.90
10046;DHT22;5063;50.878;4.742;2023-03-18T16:29:04;16.80;99.90
10046;DHT22;5063;50.878;4.742;2023-03-18T16:31:35;16.80;99.90
10046;DHT22;5063;50.878;4.742;2023-03-18T16:34:01;16.70;99.90
10046;DHT22;5063;50.878;4.742;2023-03-18T16:36:31;16.70;99.90
10046;DHT22;5063;50.878;4.742;2023-03-18T16:39:00;16.70;99.90
10046;DHT22;5063;50.878;4.742;2023-03-18T16:41:35;16.70;99.90
10046;DHT22;5063;50.878;4.742;2023-03-18T16:44:12;16.90;99.90
10046;DHT22;5063;50.878;4.742;2023-03-18T16:46:40;16.90;99.90
10046;DHT22;5063;50.878;4.742;2023-03-18T16:49:28;17.00;99.90
10046;DHT22;5063;50.878;4.742;2023-03-18T16:51:54;17.10;99.90
10046;DHT22;5063;50.878;4.742;2023-03-18T16:54:24;16.90;99.90
10046;DHT22;5063;50.878;4.742;2023-03-18T16:56:59;16.70;99.90
10046;DHT22;5063;50.878;4.742;2023-03-18T16:59:34;16.50;99.90
10046;DHT22;5063;50.878;4.742;2023-03-18T17:02:01;16.40;99.90
10046;DHT22;5063;50.878;4.742;2023-03-18T17:04:35;16.20;99.90
10046;DHT22;5063;50.878;4.742;2023-03-18T17:07:03;16.10;99.90
10046;DHT22;5063;50.878;4.742;2023-03-18T17:09:29;15.80;99.90
10046;DHT22;5063;50.878;4.742;2023-03-18T17:12:02;15.60;99.90
10046;DHT22;5063;50.878;4.742;2023-03-18T17:14:40;15.40;99.90
10046;DHT22;5063;50.878;4.742;2023-03-18T17:19:53;15.10;99.90
10046;DHT22;5063;50.878;4.742;2023-03-18T17:22:24;14.90;99.90
10046;DHT22;5063;50.878;4.742;2023-03-18T17:24:51;14.80;99.90
10046;DHT22;5063;50.878;4.742;2023-03-18T17:27:30;14.80;99.90
10046;DHT22;5063;50.878;4.742;2023-03-18T17:29:56;14.70;99.90
10046;DHT22;5063;50.878;4.742;2023-03-18T17:32:22;14.70;99.90
10046;DHT22;5063;50.878;4.742;2023-03-18T17:34:54;14.90;99.90
10046;DHT22;5063;50.878;4.742;2023-03-18T17:37:20;15.00;99.90
10046;DHT22;5063;50.878;4.742;2023-03-18T17:39:47;15.10;99.90
10046;DHT22;5063;50.878;4.742;2023-03-18T17:42:29;15.10;99.90
10046;DHT22;5063;50.878;4.742;2023-03-18T17:45:01;15.20;99.90
10046;DHT22;5063;50.878;4.742;2023-03-18T17:47:29;15.30;99.90
10046;DHT22;5063;50.878;4.742;2023-03-18T17:49:57;15.40;99.90
10046;DHT22;5063;50.878;4.742;2023-03-18T17:52:23;15.40;99.90
10046;DHT22;5063;50.878;4.742;2023-03-18T17:54:50;15.50;99.90
10046;DHT22;5063;50.878;4.742;2023-03-18T17:57:16;15.30;99.90
10046;DHT22;5063;50.878;4.742;2023-03-18T17:59:43;14.90;99.90
10046;DHT22;5063;50.878;4.742;2023-03-18T18:02:14;14.50;99.90
10046;DHT22;5063;50.878;4.742;2023-03-18T18:04:43;14.00;99.90
10046;DHT22;5063;50.878;4.742;2023-03-18T18:07:27;13.70;99.90